sensor_id;sensor_type;location;lat;lon;timestamp;temperature;humidity
23160;DHT22;11748;50.844;4.396;2022-07-19T00:02:06;27.00;70.70
23160;DHT22;11748;50.844;4.396;2022-07-19T00:04:33;27.00;70.80
23160;DHT22;11748;50.844;4.396;2022-07-19T00:07:01;26.90;70.80
23160;DHT22;11748;50.844;4.396;2022-07-19T00:09:27;26.90;71.00
23160;DHT22;11748;50.844;4.396;2022-07-19T00:11:59;26.90;71.00
23160;DHT22;11748;50.844;4.396;2022-07-19T00:14:24;26.80;71.10
23160;DHT22;11748;50.844;4.396;2022-07-19T00:16:50;26.80;71.20
23160;DHT22;11748;50.844;4.396;2022-07-19T00:19:16;26.80;71.20
23160;DHT22;11748;50.844;4.396;2022-07-19T00:21:42;26.80;71.10
23160;DHT22;11748;50.844;4.396;2022-07-19T00:24:08;26.80;71.10
23160;DHT22;11748;50.844;4.396;2022-07-19T00:26:34;26.80;70.90
23160;DHT22;11748;50.844;4.396;2022-07-19T00:29:01;26.80;70.80
23160;DHT22;11748;50.844;4.396;2022-07-19T00:31:28;26.80;70.90
23160;DHT22;11748;50.844;4.396;2022-07-19T00:33:55;26.70;70.90
23160;DHT22;11748;50.844;4.396;2022-07-19T00:36:20;26.70;71.00
23160;DHT22;11748;50.844;4.396;2022-07-19T00:38:46;26.70;70.70
23160;DHT22;11748;50.844;4.396;2022-07-19T00:41:12;26.70;70.90
23160;DHT22;11748;50.844;4.396;2022-07-19T00:43:42;26.70;70.60
23160;DHT22;11748;50.844;4.396;2022-07-19T00:46:20;26.60;70.60
23160;DHT22;11748;50.844;4.396;2022-07-19T00:48:50;26.60;70.60
23160;DHT22;11748;50.844;4.396;2022-07-19T00:51:17;26.60;70.70
23160;DHT22;11748;50.844;4.396;2022-07-19T00:53:43;26.50;70.70
23160;DHT22;11748;50.844;4.396;2022-07-19T00:56:11;26.60;70.70
23160;DHT22;11748;50.844;4.396;2022-07-19T00:58:39;26.50;70.50
23160;DHT22;11748;50.844;4.396;2022-07-19T01:01:06;26.50;70.40
23160;DHT22;11748;50.844;4.396;2022-07-19T01:03:39;26.50;70.40
23160;DHT22;11748;50.844;4.396;2022-07-19T01:06:06;26.50;70.60
23160;DHT22;11748;50.844;4.396;2022-07-19T01:08:33;26.40;70.40
23160;DHT22;11748;50.844;4.396;2022-07-19T01:10:58;26.40;70.40
23160;DHT22;11748;50.844;4.396;2022-07-19T01:13:24;26.40;70.30
23160;DHT22;11748;50.844;4.396;2022-07-19T01:15:50;26.40;70.40
23160;DHT22;11748;50.844;4.396;2022-07-19T01:18:16;26.40;70.20
23160;DHT22;11748;50.844;4.396;2022-07-19T01:20:42;26.40;70.30
23160;DHT22;11748;50.844;4.396;2022-07-19T01:23:07;26.40;70.00
23160;DHT22;11748;50.844;4.396;2022-07-19T01:25:35;26.30;70.10
23160;DHT22;11748;50.844;4.396;2022-07-19T01:28:04;26.30;70.20
23160;DHT22;11748;50.844;4.396;2022-07-19T01:30:30;26.30;70.10
23160;DHT22;11748;50.844;4.396;2022-07-19T01:32:56;26.30;70.10
23160;DHT22;11748;50.844;4.396;2022-07-19T01:35:22;26.30;70.10
23160;DHT22;11748;50.844;4.396;2022-07-19T01:37:51;26.30;70.20
23160;DHT22;11748;50.844;4.396;2022-07-19T01:40:18;26.30;70.00
23160;DHT22;11748;50.844;4.396;2022-07-19T01:42:45;26.20;70.00
23160;DHT22;11748;50.844;4.396;2022-07-19T01:45:12;26.20;70.10
23160;DHT22;11748;50.844;4.396;2022-07-19T01:47:39;26.20;70.10
23160;DHT22;11748;50.844;4.396;2022-07-19T01:50:07;26.20;70.00
23160;DHT22;11748;50.844;4.396;2022-07-19T01:52:33;26.20;70.20
23160;DHT22;11748;50.844;4.396;2022-07-19T01:54:59;26.10;69.90
23160;DHT22;11748;50.844;4.396;2022-07-19T01:57:25;26.10;70.10
23160;DHT22;11748;50.844;4.396;2022-07-19T01:59:54;26.10;70.00
23160;DHT22;11748;50.844;4.396;2022-07-19T02:02:20;26.10;70.00
23160;DHT22;11748;50.844;4.396;2022-07-19T02:04:46;26.10;70.00
23160;DHT22;11748;50.844;4.396;2022-07-19T02:07:12;26.10;70.00
23160;DHT22;11748;50.844;4.396;2022-07-19T02:09:38;26.00;69.90
23160;DHT22;11748;50.844;4.396;2022-07-19T02:12:04;26.00;70.00
23160;DHT22;11748;50.844;4.396;2022-07-19T02:14:29;26.00;70.10
23160;DHT22;11748;50.844;4.396;2022-07-19T02:16:55;26.00;70.20
23160;DHT22;11748;50.844;4.396;2022-07-19T02:19:21;26.00;70.00
23160;DHT22;11748;50.844;4.396;2022-07-19T02:21:47;25.90;70.10
23160;DHT22;11748;50.844;4.396;2022-07-19T02:24:13;26.00;70.30
23160;DHT22;11748;50.844;4.396;2022-07-19T02:26:40;25.90;70.30
23160;DHT22;11748;50.844;4.396;2022-07-19T02:29:07;25.90;70.20
23160;DHT22;11748;50.844;4.396;2022-07-19T02:31:33;25.90;70.30
23160;DHT22;11748;50.844;4.396;2022-07-19T02:33:59;25.80;70.30
23160;DHT22;11748;50.844;4.396;2022-07-19T02:36:25;25.90;70.10
23160;DHT22;11748;50.844;4.396;2022-07-19T02:38:51;25.90;70.30
23160;DHT22;11748;50.844;4.396;2022-07-19T02:41:18;25.80;70.30
23160;DHT22;11748;50.844;4.396;2022-07-19T02:43:44;25.80;70.30
23160;DHT22;11748;50.844;4.396;2022-07-19T02:46:11;25.80;70.40
23160;DHT22;11748;50.844;4.396;2022-07-19T02:48:37;25.80;70.80
23160;DHT22;11748;50.844;4.396;2022-07-19T02:51:03;25.80;70.70
23160;DHT22;11748;50.844;4.396;2022-07-19T02:53:28;25.80;70.70
23160;DHT22;11748;50.844;4.396;2022-07-19T02:55:54;25.70;70.70
23160;DHT22;11748;50.844;4.396;2022-07-19T02:58:20;25.70;70.90
23160;DHT22;11748;50.844;4.396;2022-07-19T03:00:46;25.70;70.70
23160;DHT22;11748;50.844;4.396;2022-07-19T03:03:13;25.70;70.80
23160;DHT22;11748;50.844;4.396;2022-07-19T03:05:57;25.70;70.80
23160;DHT22;11748;50.844;4.396;2022-07-19T03:08:23;25.60;70.80
23160;DHT22;11748;50.844;4.396;2022-07-19T03:10:49;25.60;70.70
23160;DHT22;11748;50.844;4.396;2022-07-19T03:13:14;25.60;70.80
23160;DHT22;11748;50.844;4.396;2022-07-19T03:15:40;25.60;70.90
23160;DHT22;11748;50.844;4.396;2022-07-19T03:18:06;25.60;70.80
23160;DHT22;11748;50.844;4.396;2022-07-19T03:20:32;25.60;71.00
23160;DHT22;11748;50.844;4.396;2022-07-19T03:22:58;25.60;71.30
23160;DHT22;11748;50.844;4.396;2022-07-19T03:25:24;25.50;71.30
23160;DHT22;11748;50.844;4.396;2022-07-19T03:27:50;25.50;71.50
23160;DHT22;11748;50.844;4.396;2022-07-19T03:30:16;25.60;71.70
23160;DHT22;11748;50.844;4.396;2022-07-19T03:32:43;25.50;71.40
23160;DHT22;11748;50.844;4.396;2022-07-19T03:35:08;25.50;71.30
23160;DHT22;11748;50.844;4.396;2022-07-19T03:37:36;25.50;71.60
23160;DHT22;11748;50.844;4.396;2022-07-19T03:40:03;25.50;71.80
23160;DHT22;11748;50.844;4.396;2022-07-19T03:42:28;25.50;71.70
23160;DHT22;11748;50.844;4.396;2022-07-19T03:44:54;25.50;71.50
23160;DHT22;11748;50.844;4.396;2022-07-19T03:47:20;25.50;71.50
23160;DHT22;11748;50.844;4.396;2022-07-19T03:49:45;25.50;71.50
23160;DHT22;11748;50.844;4.396;2022-07-19T03:52:11;25.50;71.50
23160;DHT22;11748;50.844;4.396;2022-07-19T03:54:40;25.50;71.40
23160;DHT22;11748;50.844;4.396;2022-07-19T03:57:05;25.50;71.40
23160;DHT22;11748;50.844;4.396;2022-07-19T03:59:32;25.50;71.50
23160;DHT22;11748;50.844;4.396;2022-07-19T04:01:57;25.50;72.30
23160;DHT22;11748;50.844;4.396;2022-07-19T04:04:23;25.50;71.60
23160;DHT22;11748;50.844;4.396;2022-07-19T04:06:49;25.50;71.70
23160;DHT22;11748;50.844;4.396;2022-07-19T04:09:15;25.50;71.80
23160;DHT22;11748;50.844;4.396;2022-07-19T04:11:40;25.40;72.00
23160;DHT22;11748;50.844;4.396;2022-07-19T04:14:06;25.40;72.00
23160;DHT22;11748;50.844;4.396;2022-07-19T04:16:32;25.40;72.10
23160;DHT22;11748;50.844;4.396;2022-07-19T04:18:58;25.40;72.20
23160;DHT22;11748;50.844;4.396;2022-07-19T04:21:23;25.40;72.40
23160;DHT22;11748;50.844;4.396;2022-07-19T04:23:49;25.50;72.60
23160;DHT22;11748;50.844;4.396;2022-07-19T04:26:18;25.50;72.70
23160;DHT22;11748;50.844;4.396;2022-07-19T04:28:50;25.50;72.70
23160;DHT22;11748;50.844;4.396;2022-07-19T04:31:15;25.50;72.80
23160;DHT22;11748;50.844;4.396;2022-07-19T04:33:42;25.50;73.00
23160;DHT22;11748;50.844;4.396;2022-07-19T04:36:08;25.50;73.10
23160;DHT22;11748;50.844;4.396;2022-07-19T04:38:36;25.40;73.20
23160;DHT22;11748;50.844;4.396;2022-07-19T04:41:01;25.50;73.40
23160;DHT22;11748;50.844;4.396;2022-07-19T04:43:27;25.40;73.40
23160;DHT22;11748;50.844;4.396;2022-07-19T04:45:54;25.40;73.60
23160;DHT22;11748;50.844;4.396;2022-07-19T04:48:20;25.50;73.80
23160;DHT22;11748;50.844;4.396;2022-07-19T04:50:46;25.50;73.90
23160;DHT22;11748;50.844;4.396;2022-07-19T04:53:11;25.50;73.90
23160;DHT22;11748;50.844;4.396;2022-07-19T04:55:37;25.60;74.10
23160;DHT22;11748;50.844;4.396;2022-07-19T04:58:07;25.60;74.30
23160;DHT22;11748;50.844;4.396;2022-07-19T05:00:32;25.60;74.30
23160;DHT22;11748;50.844;4.396;2022-07-19T05:02:58;25.60;74.20
23160;DHT22;11748;50.844;4.396;2022-07-19T05:05:26;25.60;74.10
23160;DHT22;11748;50.844;4.396;2022-07-19T05:07:52;25.60;74.40
23160;DHT22;11748;50.844;4.396;2022-07-19T05:10:18;25.60;74.40
23160;DHT22;11748;50.844;4.396;2022-07-19T05:12:44;25.60;74.10
23160;DHT22;11748;50.844;4.396;2022-07-19T05:15:10;25.70;73.90
23160;DHT22;11748;50.844;4.396;2022-07-19T05:17:36;25.60;73.70
23160;DHT22;11748;50.844;4.396;2022-07-19T05:20:03;25.70;73.70
23160;DHT22;11748;50.844;4.396;2022-07-19T05:22:29;25.80;73.40
23160;DHT22;11748;50.844;4.396;2022-07-19T05:24:55;25.80;73.30
23160;DHT22;11748;50.844;4.396;2022-07-19T05:27:23;25.90;73.30
23160;DHT22;11748;50.844;4.396;2022-07-19T05:29:51;25.90;73.20
23160;DHT22;11748;50.844;4.396;2022-07-19T05:32:17;26.00;72.80
23160;DHT22;11748;50.844;4.396;2022-07-19T05:34:44;26.00;72.80
23160;DHT22;11748;50.844;4.396;2022-07-19T05:37:10;26.10;72.50
23160;DHT22;11748;50.844;4.396;2022-07-19T05:39:36;26.10;72.40
23160;DHT22;11748;50.844;4.396;2022-07-19T05:42:01;26.20;72.40
23160;DHT22;11748;50.844;4.396;2022-07-19T05:44:27;26.20;72.10
23160;DHT22;11748;50.844;4.396;2022-07-19T05:46:53;26.30;72.00
23160;DHT22;11748;50.844;4.396;2022-07-19T05:49:19;26.30;72.10
23160;DHT22;11748;50.844;4.396;2022-07-19T05:51:46;26.40;71.90
23160;DHT22;11748;50.844;4.396;2022-07-19T05:54:12;26.50;71.80
23160;DHT22;11748;50.844;4.396;2022-07-19T05:56:44;26.50;71.90
23160;DHT22;11748;50.844;4.396;2022-07-19T05:59:11;26.50;71.90
23160;DHT22;11748;50.844;4.396;2022-07-19T06:01:36;26.60;71.60
23160;DHT22;11748;50.844;4.396;2022-07-19T06:04:02;26.60;71.80
23160;DHT22;11748;50.844;4.396;2022-07-19T06:06:31;26.70;71.70
23160;DHT22;11748;50.844;4.396;2022-07-19T06:08:58;26.80;71.50
23160;DHT22;11748;50.844;4.396;2022-07-19T06:11:24;26.80;71.50
23160;DHT22;11748;50.844;4.396;2022-07-19T06:13:50;26.80;71.30
23160;DHT22;11748;50.844;4.396;2022-07-19T06:16:16;26.90;71.30
23160;DHT22;11748;50.844;4.396;2022-07-19T06:18:43;27.00;71.10
23160;DHT22;11748;50.844;4.396;2022-07-19T06:21:10;27.20;70.60
23160;DHT22;11748;50.844;4.396;2022-07-19T06:23:39;28.10;69.40
23160;DHT22;11748;50.844;4.396;2022-07-19T06:26:05;29.40;67.20
23160;DHT22;11748;50.844;4.396;2022-07-19T06:28:34;30.70;64.90
23160;DHT22;11748;50.844;4.396;2022-07-19T06:30:59;31.70;63.20
23160;DHT22;11748;50.844;4.396;2022-07-19T06:33:25;32.50;61.60
23160;DHT22;11748;50.844;4.396;2022-07-19T06:35:51;33.30;60.50
23160;DHT22;11748;50.844;4.396;2022-07-19T06:38:19;33.50;60.00
23160;DHT22;11748;50.844;4.396;2022-07-19T06:40:45;33.80;60.00
23160;DHT22;11748;50.844;4.396;2022-07-19T06:43:11;33.70;59.60
23160;DHT22;11748;50.844;4.396;2022-07-19T06:45:37;33.20;59.70
23160;DHT22;11748;50.844;4.396;2022-07-19T06:48:03;32.80;60.20
23160;DHT22;11748;50.844;4.396;2022-07-19T06:50:29;32.40;61.00
23160;DHT22;11748;50.844;4.396;2022-07-19T06:52:56;31.80;61.40
23160;DHT22;11748;50.844;4.396;2022-07-19T06:55:22;31.20;62.30
23160;DHT22;11748;50.844;4.396;2022-07-19T06:57:47;30.90;62.70
23160;DHT22;11748;50.844;4.396;2022-07-19T07:00:14;30.60;62.90
23160;DHT22;11748;50.844;4.396;2022-07-19T07:02:40;30.40;63.50
23160;DHT22;11748;50.844;4.396;2022-07-19T07:05:08;30.20;63.90
23160;DHT22;11748;50.844;4.396;2022-07-19T07:07:35;30.00;64.20
23160;DHT22;11748;50.844;4.396;2022-07-19T07:10:02;29.80;64.30
23160;DHT22;11748;50.844;4.396;2022-07-19T07:12:28;29.70;64.80
23160;DHT22;11748;50.844;4.396;2022-07-19T07:14:54;29.80;64.50
23160;DHT22;11748;50.844;4.396;2022-07-19T07:17:21;29.70;64.80
23160;DHT22;11748;50.844;4.396;2022-07-19T07:19:47;29.70;64.40
23160;DHT22;11748;50.844;4.396;2022-07-19T07:22:13;29.70;64.50
23160;DHT22;11748;50.844;4.396;2022-07-19T07:24:39;29.70;65.20
23160;DHT22;11748;50.844;4.396;2022-07-19T07:27:06;29.70;65.30
23160;DHT22;11748;50.844;4.396;2022-07-19T07:29:31;29.70;65.50
23160;DHT22;11748;50.844;4.396;2022-07-19T07:31:57;29.60;66.00
23160;DHT22;11748;50.844;4.396;2022-07-19T07:34:23;29.60;66.00
23160;DHT22;11748;50.844;4.396;2022-07-19T07:36:49;29.70;66.20
23160;DHT22;11748;50.844;4.396;2022-07-19T07:39:21;29.80;66.20
23160;DHT22;11748;50.844;4.396;2022-07-19T07:41:49;29.80;66.50
23160;DHT22;11748;50.844;4.396;2022-07-19T07:44:17;29.80;66.80
23160;DHT22;11748;50.844;4.396;2022-07-19T07:46:43;29.80;67.00
23160;DHT22;11748;50.844;4.396;2022-07-19T07:49:08;29.80;66.40
23160;DHT22;11748;50.844;4.396;2022-07-19T07:51:34;29.80;66.40
23160;DHT22;11748;50.844;4.396;2022-07-19T07:54:01;29.90;66.80
23160;DHT22;11748;50.844;4.396;2022-07-19T07:56:28;30.00;66.80
23160;DHT22;11748;50.844;4.396;2022-07-19T07:58:54;30.00;67.10
23160;DHT22;11748;50.844;4.396;2022-07-19T08:01:20;30.00;67.00
23160;DHT22;11748;50.844;4.396;2022-07-19T08:03:46;30.00;66.90
23160;DHT22;11748;50.844;4.396;2022-07-19T08:06:12;30.10;67.50
23160;DHT22;11748;50.844;4.396;2022-07-19T08:08:42;30.20;67.40
23160;DHT22;11748;50.844;4.396;2022-07-19T08:11:08;30.20;67.10
23160;DHT22;11748;50.844;4.396;2022-07-19T08:13:33;30.30;67.10
23160;DHT22;11748;50.844;4.396;2022-07-19T08:15:59;30.40;66.90
23160;DHT22;11748;50.844;4.396;2022-07-19T08:18:25;30.30;66.50
23160;DHT22;11748;50.844;4.396;2022-07-19T08:20:51;30.30;66.40
23160;DHT22;11748;50.844;4.396;2022-07-19T08:23:17;30.40;66.10
23160;DHT22;11748;50.844;4.396;2022-07-19T08:25:42;30.40;66.10
23160;DHT22;11748;50.844;4.396;2022-07-19T08:28:08;30.50;66.50
23160;DHT22;11748;50.844;4.396;2022-07-19T08:30:34;30.60;66.00
23160;DHT22;11748;50.844;4.396;2022-07-19T08:33:01;30.60;66.40
23160;DHT22;11748;50.844;4.396;2022-07-19T08:35:26;30.70;66.00
23160;DHT22;11748;50.844;4.396;2022-07-19T08:37:53;30.70;65.60
23160;DHT22;11748;50.844;4.396;2022-07-19T08:40:19;30.80;65.60
23160;DHT22;11748;50.844;4.396;2022-07-19T08:42:46;30.80;65.20
23160;DHT22;11748;50.844;4.396;2022-07-19T08:45:12;30.90;65.00
23160;DHT22;11748;50.844;4.396;2022-07-19T08:47:45;31.00;65.00
23160;DHT22;11748;50.844;4.396;2022-07-19T08:50:11;31.10;64.60
23160;DHT22;11748;50.844;4.396;2022-07-19T08:52:37;31.00;64.60
23160;DHT22;11748;50.844;4.396;2022-07-19T08:55:04;31.10;63.80
23160;DHT22;11748;50.844;4.396;2022-07-19T08:57:30;31.20;64.30
23160;DHT22;11748;50.844;4.396;2022-07-19T09:00:14;31.30;64.60
23160;DHT22;11748;50.844;4.396;2022-07-19T09:03:11;31.40;64.70
23160;DHT22;11748;50.844;4.396;2022-07-19T09:05:36;31.40;64.00
23160;DHT22;11748;50.844;4.396;2022-07-19T09:08:13;31.40;63.60
23160;DHT22;11748;50.844;4.396;2022-07-19T09:10:45;31.50;64.00
23160;DHT22;11748;50.844;4.396;2022-07-19T09:13:30;31.60;63.50
23160;DHT22;11748;50.844;4.396;2022-07-19T09:15:55;31.70;62.70
23160;DHT22;11748;50.844;4.396;2022-07-19T09:20:59;31.80;61.90
23160;DHT22;11748;50.844;4.396;2022-07-19T09:23:32;32.00;61.50
23160;DHT22;11748;50.844;4.396;2022-07-19T09:26:04;32.00;61.80
23160;DHT22;11748;50.844;4.396;2022-07-19T09:28:34;32.00;61.00
23160;DHT22;11748;50.844;4.396;2022-07-19T09:31:00;32.20;60.00
23160;DHT22;11748;50.844;4.396;2022-07-19T09:33:30;32.20;59.90
23160;DHT22;11748;50.844;4.396;2022-07-19T09:35:59;32.30;60.20
23160;DHT22;11748;50.844;4.396;2022-07-19T09:38:27;32.40;60.40
23160;DHT22;11748;50.844;4.396;2022-07-19T09:44:01;32.60;60.30
23160;DHT22;11748;50.844;4.396;2022-07-19T09:46:39;32.70;59.30
23160;DHT22;11748;50.844;4.396;2022-07-19T09:49:10;32.90;58.70
23160;DHT22;11748;50.844;4.396;2022-07-19T09:51:41;32.90;58.70
23160;DHT22;11748;50.844;4.396;2022-07-19T09:54:09;32.90;58.80
23160;DHT22;11748;50.844;4.396;2022-07-19T09:56:41;33.00;58.50
23160;DHT22;11748;50.844;4.396;2022-07-19T09:59:07;33.10;58.50
23160;DHT22;11748;50.844;4.396;2022-07-19T10:01:36;33.10;57.50
23160;DHT22;11748;50.844;4.396;2022-07-19T10:04:17;33.20;58.10
23160;DHT22;11748;50.844;4.396;2022-07-19T10:06:45;33.30;58.70
23160;DHT22;11748;50.844;4.396;2022-07-19T10:09:15;33.30;59.10
23160;DHT22;11748;50.844;4.396;2022-07-19T10:11:44;33.40;58.00
23160;DHT22;11748;50.844;4.396;2022-07-19T10:14:13;33.60;58.00
23160;DHT22;11748;50.844;4.396;2022-07-19T10:16:51;33.70;57.30
23160;DHT22;11748;50.844;4.396;2022-07-19T10:19:42;33.60;57.20
23160;DHT22;11748;50.844;4.396;2022-07-19T10:22:17;33.70;56.90
23160;DHT22;11748;50.844;4.396;2022-07-19T10:24:57;33.80;56.70
23160;DHT22;11748;50.844;4.396;2022-07-19T10:29:50;33.90;56.30
23160;DHT22;11748;50.844;4.396;2022-07-19T10:32:17;34.00;56.60
23160;DHT22;11748;50.844;4.396;2022-07-19T10:34:44;34.00;56.10
23160;DHT22;11748;50.844;4.396;2022-07-19T10:37:41;34.10;55.30
23160;DHT22;11748;50.844;4.396;2022-07-19T10:40:08;34.30;54.90
23160;DHT22;11748;50.844;4.396;2022-07-19T10:42:34;34.40;55.30
23160;DHT22;11748;50.844;4.396;2022-07-19T10:50:10;34.50;55.20
23160;DHT22;11748;50.844;4.396;2022-07-19T10:52:40;34.50;54.30
23160;DHT22;11748;50.844;4.396;2022-07-19T10:55:26;34.70;53.60
23160;DHT22;11748;50.844;4.396;2022-07-19T11:00:26;34.90;53.80
23160;DHT22;11748;50.844;4.396;2022-07-19T11:03:25;34.90;53.50
23160;DHT22;11748;50.844;4.396;2022-07-19T11:05:46;35.00;53.20
23160;DHT22;11748;50.844;4.396;2022-07-19T11:08:13;35.10;53.20
23160;DHT22;11748;50.844;4.396;2022-07-19T11:10:39;35.10;53.60
23160;DHT22;11748;50.844;4.396;2022-07-19T11:13:05;35.10;53.70
23160;DHT22;11748;50.844;4.396;2022-07-19T11:15:54;35.20;53.00
23160;DHT22;11748;50.844;4.396;2022-07-19T11:18:27;35.30;53.00
23160;DHT22;11748;50.844;4.396;2022-07-19T11:21:05;35.20;53.10
23160;DHT22;11748;50.844;4.396;2022-07-19T11:23:39;35.30;52.90
23160;DHT22;11748;50.844;4.396;2022-07-19T11:26:15;35.40;53.00
23160;DHT22;11748;50.844;4.396;2022-07-19T11:28:44;35.50;52.90
23160;DHT22;11748;50.844;4.396;2022-07-19T11:31:19;35.60;53.80
23160;DHT22;11748;50.844;4.396;2022-07-19T11:33:46;35.70;51.50
23160;DHT22;11748;50.844;4.396;2022-07-19T11:36:14;35.80;51.70
23160;DHT22;11748;50.844;4.396;2022-07-19T11:38:54;35.90;51.70
23160;DHT22;11748;50.844;4.396;2022-07-19T11:41:24;35.90;52.30
23160;DHT22;11748;50.844;4.396;2022-07-19T11:44:07;35.80;52.20
23160;DHT22;11748;50.844;4.396;2022-07-19T11:46:56;35.90;52.60
23160;DHT22;11748;50.844;4.396;2022-07-19T11:49:25;35.90;53.00
23160;DHT22;11748;50.844;4.396;2022-07-19T11:52:01;35.90;53.60
23160;DHT22;11748;50.844;4.396;2022-07-19T11:54:34;36.10;53.50
23160;DHT22;11748;50.844;4.396;2022-07-19T11:57:04;36.20;52.70
23160;DHT22;11748;50.844;4.396;2022-07-19T11:59:31;36.10;51.40
23160;DHT22;11748;50.844;4.396;2022-07-19T12:01:59;36.00;51.90
23160;DHT22;11748;50.844;4.396;2022-07-19T12:04:25;36.10;51.40
23160;DHT22;11748;50.844;4.396;2022-07-19T12:06:52;36.20;52.30
23160;DHT22;11748;50.844;4.396;2022-07-19T12:09:36;36.30;51.60
23160;DHT22;11748;50.844;4.396;2022-07-19T12:12:13;36.20;51.20
23160;DHT22;11748;50.844;4.396;2022-07-19T12:14:39;36.20;50.90
23160;DHT22;11748;50.844;4.396;2022-07-19T12:17:18;36.30;51.10
23160;DHT22;11748;50.844;4.396;2022-07-19T12:19:46;36.40;50.60
23160;DHT22;11748;50.844;4.396;2022-07-19T12:22:29;36.50;51.00
23160;DHT22;11748;50.844;4.396;2022-07-19T12:24:55;36.60;51.20
23160;DHT22;11748;50.844;4.396;2022-07-19T12:27:21;36.60;51.20
23160;DHT22;11748;50.844;4.396;2022-07-19T12:29:54;36.70;51.10
23160;DHT22;11748;50.844;4.396;2022-07-19T12:32:33;36.90;50.00
23160;DHT22;11748;50.844;4.396;2022-07-19T12:35:13;36.90;51.00
23160;DHT22;11748;50.844;4.396;2022-07-19T12:37:42;36.80;50.90
23160;DHT22;11748;50.844;4.396;2022-07-19T12:45:09;36.90;51.60
23160;DHT22;11748;50.844;4.396;2022-07-19T12:47:35;37.00;51.10
23160;DHT22;11748;50.844;4.396;2022-07-19T12:50:01;37.10;50.40
23160;DHT22;11748;50.844;4.396;2022-07-19T12:52:26;37.30;49.80
23160;DHT22;11748;50.844;4.396;2022-07-19T12:54:53;37.20;50.90
23160;DHT22;11748;50.844;4.396;2022-07-19T12:57:19;37.10;50.70
23160;DHT22;11748;50.844;4.396;2022-07-19T12:59:44;37.30;49.70
23160;DHT22;11748;50.844;4.396;2022-07-19T13:02:14;37.30;50.10
23160;DHT22;11748;50.844;4.396;2022-07-19T13:04:42;37.40;49.70
23160;DHT22;11748;50.844;4.396;2022-07-19T13:07:10;37.40;50.10
23160;DHT22;11748;50.844;4.396;2022-07-19T13:09:37;37.40;49.40
23160;DHT22;11748;50.844;4.396;2022-07-19T13:12:06;37.40;49.20
23160;DHT22;11748;50.844;4.396;2022-07-19T13:14:35;37.30;49.00
23160;DHT22;11748;50.844;4.396;2022-07-19T13:17:02;37.40;48.70
23160;DHT22;11748;50.844;4.396;2022-07-19T13:19:28;37.50;48.80
23160;DHT22;11748;50.844;4.396;2022-07-19T13:21:53;37.60;48.80
23160;DHT22;11748;50.844;4.396;2022-07-19T13:24:19;37.70;49.30
23160;DHT22;11748;50.844;4.396;2022-07-19T13:26:45;37.70;48.50
23160;DHT22;11748;50.844;4.396;2022-07-19T13:29:11;37.70;49.60
23160;DHT22;11748;50.844;4.396;2022-07-19T13:31:37;37.80;48.80
23160;DHT22;11748;50.844;4.396;2022-07-19T13:34:03;37.90;49.50
23160;DHT22;11748;50.844;4.396;2022-07-19T13:36:29;37.70;48.00
23160;DHT22;11748;50.844;4.396;2022-07-19T13:38:55;37.60;47.60
23160;DHT22;11748;50.844;4.396;2022-07-19T13:41:20;37.80;46.50
23160;DHT22;11748;50.844;4.396;2022-07-19T13:43:47;37.90;47.00
23160;DHT22;11748;50.844;4.396;2022-07-19T13:46:14;37.90;48.10
23160;DHT22;11748;50.844;4.396;2022-07-19T13:48:41;37.90;46.50
23160;DHT22;11748;50.844;4.396;2022-07-19T13:51:07;37.80;46.50
23160;DHT22;11748;50.844;4.396;2022-07-19T13:53:35;37.80;45.80
23160;DHT22;11748;50.844;4.396;2022-07-19T13:56:02;37.80;46.10
23160;DHT22;11748;50.844;4.396;2022-07-19T13:58:28;37.90;46.00
23160;DHT22;11748;50.844;4.396;2022-07-19T14:00:54;38.00;46.70
23160;DHT22;11748;50.844;4.396;2022-07-19T14:03:20;37.90;45.10
23160;DHT22;11748;50.844;4.396;2022-07-19T14:05:47;37.90;44.50
23160;DHT22;11748;50.844;4.396;2022-07-19T14:08:15;38.00;43.50
23160;DHT22;11748;50.844;4.396;2022-07-19T14:10:41;38.00;42.60
23160;DHT22;11748;50.844;4.396;2022-07-19T14:13:08;38.00;43.60
23160;DHT22;11748;50.844;4.396;2022-07-19T14:15:34;38.10;43.50
23160;DHT22;11748;50.844;4.396;2022-07-19T14:18:01;38.20;43.10
23160;DHT22;11748;50.844;4.396;2022-07-19T14:20:27;38.30;41.60
23160;DHT22;11748;50.844;4.396;2022-07-19T14:22:53;38.30;41.80
23160;DHT22;11748;50.844;4.396;2022-07-19T14:25:19;38.20;43.20
23160;DHT22;11748;50.844;4.396;2022-07-19T14:27:45;38.20;41.70
23160;DHT22;11748;50.844;4.396;2022-07-19T14:30:13;38.10;41.60
23160;DHT22;11748;50.844;4.396;2022-07-19T14:32:40;38.20;41.10
23160;DHT22;11748;50.844;4.396;2022-07-19T14:35:07;38.20;41.80
23160;DHT22;11748;50.844;4.396;2022-07-19T14:37:34;38.30;40.80
23160;DHT22;11748;50.844;4.396;2022-07-19T14:40:00;38.20;40.90
23160;DHT22;11748;50.844;4.396;2022-07-19T14:42:25;38.20;41.80
23160;DHT22;11748;50.844;4.396;2022-07-19T14:44:56;38.30;43.90
23160;DHT22;11748;50.844;4.396;2022-07-19T14:47:22;38.10;44.40
23160;DHT22;11748;50.844;4.396;2022-07-19T14:49:48;38.30;44.10
23160;DHT22;11748;50.844;4.396;2022-07-19T14:52:14;38.20;45.60
23160;DHT22;11748;50.844;4.396;2022-07-19T14:54:40;38.20;44.40
23160;DHT22;11748;50.844;4.396;2022-07-19T14:57:05;38.20;43.70
23160;DHT22;11748;50.844;4.396;2022-07-19T14:59:31;38.30;42.90
23160;DHT22;11748;50.844;4.396;2022-07-19T15:01:57;38.30;40.00
23160;DHT22;11748;50.844;4.396;2022-07-19T15:04:23;38.30;39.40
23160;DHT22;11748;50.844;4.396;2022-07-19T15:06:48;38.30;40.10
23160;DHT22;11748;50.844;4.396;2022-07-19T15:09:14;38.30;41.90
23160;DHT22;11748;50.844;4.396;2022-07-19T15:11:40;38.20;41.20
23160;DHT22;11748;50.844;4.396;2022-07-19T15:14:06;38.20;41.10
23160;DHT22;11748;50.844;4.396;2022-07-19T15:16:32;38.40;42.00
23160;DHT22;11748;50.844;4.396;2022-07-19T15:18:58;38.30;43.60
23160;DHT22;11748;50.844;4.396;2022-07-19T15:21:23;38.40;42.30
23160;DHT22;11748;50.844;4.396;2022-07-19T15:23:49;38.40;42.90
23160;DHT22;11748;50.844;4.396;2022-07-19T15:26:17;38.30;43.80
23160;DHT22;11748;50.844;4.396;2022-07-19T15:28:44;38.30;43.10
23160;DHT22;11748;50.844;4.396;2022-07-19T15:31:09;38.40;43.30
23160;DHT22;11748;50.844;4.396;2022-07-19T15:33:35;38.40;43.30
23160;DHT22;11748;50.844;4.396;2022-07-19T15:36:01;38.40;43.60
23160;DHT22;11748;50.844;4.396;2022-07-19T15:38:27;38.30;44.00
23160;DHT22;11748;50.844;4.396;2022-07-19T15:40:52;38.40;43.70
23160;DHT22;11748;50.844;4.396;2022-07-19T15:43:19;38.30;44.80
23160;DHT22;11748;50.844;4.396;2022-07-19T15:45:46;38.40;43.10
23160;DHT22;11748;50.844;4.396;2022-07-19T15:48:12;38.40;42.70
23160;DHT22;11748;50.844;4.396;2022-07-19T15:50:38;38.30;42.90
23160;DHT22;11748;50.844;4.396;2022-07-19T15:53:08;38.30;42.40
23160;DHT22;11748;50.844;4.396;2022-07-19T15:55:34;38.30;43.20